Time;durP1;ratioP1;P1;durP2;ratioP2;P2;SDS_P1;SDS_P2;PMS_P1;PMS_P2;Temp;Humidity;BMP_temperature;BMP_pressure;BME280_temperature;BME280_humidity;BME280_pressure;Samples;Min_cycle;Max_cycle;Signal;HPM_P1;HPM_P2
2023/08/01 00:02:45;;;;;;;2.63;1.05;;;;;;;;;;5953634;28;20047;-77
2023/08/01 00:05:37;;;;;;;3.70;1.23;;;;;;;;;;5939610;28;20054;-77
2023/08/01 00:08:28;;;;;;;0.38;0.38;;;;;;;;;;5957879;28;20047;-76
2023/08/01 00:11:19;;;;;;;0.73;0.50;;;;;;;;;;5957560;28;20406;-79
2023/08/01 00:14:09;;;;;;;0.98;0.75;;;;;;;;;;5958044;28;20055;-77
2023/08/01 00:17:00;;;;;;;1.60;1.30;;;;;;;;;;5958147;28;20508;-78
2023/08/01 00:19:51;;;;;;;3.53;1.15;;;;;;;;;;5957825;28;20052;-77
2023/08/01 00:22:42;;;;;;;0.95;0.82;;;;;;;;;;5957281;28;20185;-77
2023/08/01 00:25:33;;;;;;;6.20;0.75;;;;;;;;;;5957512;28;20051;-77
2023/08/01 00:28:24;;;;;;;0.85;0.75;;;;;;;;;;5955073;28;20039;-77
2023/08/01 00:31:15;;;;;;;0.93;0.77;;;;;;;;;;5951943;28;20051;-78
2023/08/01 00:34:05;;;;;;;2.80;1.08;;;;;;;;;;5955859;28;20197;-77
2023/08/01 00:36:57;;;;;;;1.42;0.80;;;;;;;;;;5957831;28;20047;-78
2023/08/01 00:39:48;;;;;;;1.30;1.08;;;;;;;;;;5957655;28;20173;-77
2023/08/01 00:42:39;;;;;;;2.60;1.45;;;;;;;;;;5957062;28;20047;-76
2023/08/01 00:45:30;;;;;;;0.68;0.68;;;;;;;;;;5957503;28;20498;-76
2023/08/01 00:48:21;;;;;;;0.60;0.60;;;;;;;;;;5954935;28;20126;-78
2023/08/01 00:51:13;;;;;;;0.80;0.60;;;;;;;;;;5950846;28;20447;-76
2023/08/01 00:54:04;;;;;;;3.20;1.08;;;;;;;;;;5958676;28;20482;-78
2023/08/01 00:56:55;;;;;;;3.28;1.33;;;;;;;;;;5962019;28;20048;-77
2023/08/01 00:59:46;;;;;;;0.57;0.57;;;;;;;;;;5961119;28;20047;-76
2023/08/01 01:02:37;;;;;;;0.95;0.60;;;;;;;;;;5961617;28;20046;-76
2023/08/01 01:05:37;;;;;;;1.17;0.65;;;;;;;;;;5943403;28;20050;-77
2023/08/01 01:08:28;;;;;;;0.75;0.70;;;;;;;;;;5958331;28;20051;-78
2023/08/01 01:11:19;;;;;;;0.60;0.50;;;;;;;;;;5955810;28;20135;-77
2023/08/01 01:14:10;;;;;;;2.22;0.88;;;;;;;;;;5961343;28;20054;-76
2023/08/01 01:17:01;;;;;;;1.15;0.60;;;;;;;;;;5961260;28;20079;-76
2023/08/01 01:19:54;;;;;;;1.23;0.77;;;;;;;;;;5961361;28;20079;-79
2023/08/01 01:22:44;;;;;;;2.13;1.23;;;;;;;;;;5960838;28;20140;-78
2023/08/01 01:25:37;;;;;;;0.82;0.40;;;;;;;;;;5961240;28;20051;-77
2023/08/01 01:28:29;;;;;;;0.75;0.75;;;;;;;;;;5957927;28;20483;-76
2023/08/01 01:31:20;;;;;;;0.75;0.75;;;;;;;;;;5955912;28;20051;-76
2023/08/01 01:34:11;;;;;;;0.40;0.40;;;;;;;;;;5960812;28;20048;-77
2023/08/01 01:37:03;;;;;;;3.95;2.00;;;;;;;;;;5942384;28;20067;-77
2023/08/01 01:39:54;;;;;;;0.95;0.73;;;;;;;;;;5961149;28;20044;-76
2023/08/01 01:42:45;;;;;;;0.70;0.70;;;;;;;;;;5960470;28;20047;-77
2023/08/01 01:45:36;;;;;;;1.48;0.93;;;;;;;;;;5960216;28;20543;-75
2023/08/01 01:48:27;;;;;;;0.40;0.40;;;;;;;;;;5960451;28;20047;-78
2023/08/01 01:51:19;;;;;;;0.60;0.60;;;;;;;;;;5960238;28;20054;-76
2023/08/01 01:54:09;;;;;;;3.55;1.35;;;;;;;;;;5960469;28;20047;-77
2023/08/01 01:57:00;;;;;;;0.50;0.50;;;;;;;;;;5960697;28;20058;-78
2023/08/01 01:59:51;;;;;;;0.30;0.30;;;;;;;;;;5960692;28;20043;-77
2023/08/01 02:02:41;;;;;;;1.05;0.93;;;;;;;;;;5955406;28;20050;-79
2023/08/01 02:05:32;;;;;;;1.05;0.90;;;;;;;;;;5958177;28;20066;-77
2023/08/01 02:08:23;;;;;;;0.77;0.65;;;;;;;;;;5959776;28;20051;-76
2023/08/01 02:11:14;;;;;;;2.80;1.55;;;;;;;;;;5959896;28;20128;-78
2023/08/01 02:14:05;;;;;;;0.93;0.68;;;;;;;;;;5959692;28;20048;-76
2023/08/01 02:16:56;;;;;;;0.40;0.40;;;;;;;;;;5960209;28;20497;-76
2023/08/01 02:19:46;;;;;;;0.80;0.52;;;;;;;;;;5941804;28;20051;-77
2023/08/01 02:22:37;;;;;;;0.98;0.77;;;;;;;;;;5959508;28;20354;-79
2023/08/01 02:25:28;;;;;;;0.98;0.68;;;;;;;;;;5959605;28;20055;-77
2023/08/01 02:28:18;;;;;;;1.73;0.98;;;;;;;;;;5959339;28;20043;-78
2023/08/01 02:31:11;;;;;;;1.42;0.70;;;;;;;;;;5959318;28;20051;-77
2023/08/01 02:34:01;;;;;;;1.05;0.93;;;;;;;;;;5959698;28;20481;-77
2023/08/01 02:36:53;;;;;;;1.55;0.75;;;;;;;;;;5959514;28;20058;-76
2023/08/01 02:39:44;;;;;;;3.50;0.50;;;;;;;;;;5959535;28;20127;-79
2023/08/01 02:42:35;;;;;;;3.03;0.73;;;;;;;;;;5949698;28;20039;-77
2023/08/01 02:45:25;;;;;;;4.47;0.60;;;;;;;;;;5958545;28;20489;-77
2023/08/01 02:48:16;;;;;;;0.63;0.30;;;;;;;;;;5957785;28;20055;-76
2023/08/01 02:51:09;;;;;;;0.43;0.43;;;;;;;;;;5952165;28;20054;-76
2023/08/01 02:54:00;;;;;;;0.98;0.80;;;;;;;;;;5952084;28;20140;-77
2023/08/01 02:56:51;;;;;;;0.85;0.70;;;;;;;;;;5958687;28;20050;-80
2023/08/01 02:59:41;;;;;;;1.67;1.38;;;;;;;;;;5958692;28;20044;-77
2023/08/01 03:02:32;;;;;;;0.60;0.60;;;;;;;;;;5957073;28;20050;-78
2023/08/01 03:05:23;;;;;;;5.68;0.75;;;;;;;;;;5957035;28;20050;-76
2023/08/01 03:08:15;;;;;;;1.65;0.57;;;;;;;;;;5958362;28;20146;-78
2023/08/01 03:11:06;;;;;;;31.40;1.38;;;;;;;;;;5957341;28;20043;-76
2023/08/01 03:13:56;;;;;;;1.10;0.95;;;;;;;;;;5946802;28;20423;-78
2023/08/01 03:16:47;;;;;;;1.08;0.65;;;;;;;;;;5957868;28;20044;-80
2023/08/01 03:19:39;;;;;;;1.95;1.15;;;;;;;;;;5958768;28;20043;-76
2023/08/01 03:22:29;;;;;;;1.48;0.93;;;;;;;;;;5958273;28;20507;-77
2023/08/01 03:25:20;;;;;;;0.32;0.32;;;;;;;;;;5940445;28;20504;-76
2023/08/01 03:28:11;;;;;;;0.77;0.63;;;;;;;;;;5958323;28;20058;-78
2023/08/01 03:31:02;;;;;;;5.35;0.85;;;;;;;;;;5958557;28;20126;-77
2023/08/01 03:33:53;;;;;;;0.60;0.60;;;;;;;;;;5934457;28;20044;-76
2023/08/01 03:36:44;;;;;;;1.00;0.88;;;;;;;;;;5956626;28;20466;-78
2023/08/01 03:39:34;;;;;;;0.77;0.55;;;;;;;;;;5949464;28;20928;-79
2023/08/01 03:42:25;;;;;;;2.20;0.95;;;;;;;;;;5958023;28;20062;-77
2023/08/01 03:45:16;;;;;;;1.05;0.60;;;;;;;;;;5949983;28;20061;-79
2023/08/01 03:48:07;;;;;;;1.67;1.58;;;;;;;;;;5957941;28;20051;-76
2023/08/01 03:50:58;;;;;;;1.00;0.82;;;;;;;;;;5958726;28;20131;-77
2023/08/01 03:53:48;;;;;;;1.33;0.75;;;;;;;;;;5958023;28;20050;-77
2023/08/01 03:56:53;;;;;;;1.63;1.25;;;;;;;;;;5958517;28;20127;-81
2023/08/01 03:59:44;;;;;;;1.40;0.75;;;;;;;;;;5949387;28;20063;-79
2023/08/01 04:02:34;;;;;;;0.57;0.57;;;;;;;;;;5958192;28;20044;-78
2023/08/01 04:05:25;;;;;;;2.45;1.10;;;;;;;;;;5957635;28;20081;-77
2023/08/01 04:08:16;;;;;;;1.58;1.00;;;;;;;;;;5958215;28;20052;-78
2023/08/01 04:11:07;;;;;;;1.38;0.90;;;;;;;;;;5949871;28;20056;-77
2023/08/01 04:13:58;;;;;;;3.67;0.85;;;;;;;;;;5949698;28;20047;-77
2023/08/01 04:16:49;;;;;;;1.77;1.45;;;;;;;;;;5958005;28;20489;-76
2023/08/01 04:19:40;;;;;;;0.50;0.50;;;;;;;;;;5957837;28;20050;-78
2023/08/01 04:22:30;;;;;;;2.10;0.63;;;;;;;;;;5957858;28;20046;-79
2023/08/01 04:25:24;;;;;;;1.00;0.70;;;;;;;;;;5955442;28;20051;-79
2023/08/01 04:28:15;;;;;;;1.98;0.80;;;;;;;;;;5953986;28;20054;-76
2023/08/01 04:31:06;;;;;;;0.93;0.60;;;;;;;;;;5962373;28;20050;-79
2023/08/01 04:33:59;;;;;;;2.35;0.40;;;;;;;;;;5962760;28;20051;-78
2023/08/01 04:36:51;;;;;;;2.13;0.70;;;;;;;;;;5962359;28;20050;-76
2023/08/01 04:39:41;;;;;;;4.82;0.75;;;;;;;;;;5944242;28;20044;-76
2023/08/01 04:42:32;;;;;;;2.85;1.30;;;;;;;;;;5962012;28;20044;-79
2023/08/01 04:45:23;;;;;;;2.53;1.10;;;;;;;;;;5960507;28;20052;-76
2023/08/01 04:48:14;;;;;;;2.15;0.90;;;;;;;;;;5961638;28;20067;-79
2023/08/01 04:51:05;;;;;;;1.85;0.60;;;;;;;;;;5953774;28;20407;-77
2023/08/01 04:53:56;;;;;;;0.82;0.65;;;;;;;;;;5962478;28;20054;-78
2023/08/01 04:56:47;;;;;;;1.45;0.60;;;;;;;;;;5961524;27;20062;-78
2023/08/01 04:59:38;;;;;;;0.57;0.57;;;;;;;;;;5956911;28;20051;-81
2023/08/01 05:02:28;;;;;;;3.25;1.00;;;;;;;;;;5960957;28;20044;-80
2023/08/01 05:05:19;;;;;;;2.53;0.82;;;;;;;;;;5956112;28;20051;-79
2023/08/01 05:08:10;;;;;;;1.95;0.88;;;;;;;;;;5956150;28;20129;-80
2023/08/01 05:11:01;;;;;;;1.25;0.88;;;;;;;;;;5951311;28;20045;-77
2023/08/01 05:13:52;;;;;;;0.50;0.40;;;;;;;;;;5953649;28;20067;-81
2023/08/01 05:16:42;;;;;;;0.73;0.43;;;;;;;;;;5954704;28;20511;-76
2023/08/01 05:19:33;;;;;;;0.60;0.38;;;;;;;;;;5958237;27;20498;-75
2023/08/01 05:22:24;;;;;;;1.67;0.95;;;;;;;;;;5959771;27;20051;-80
2023/08/01 05:25:15;;;;;;;1.83;0.47;;;;;;;;;;5985399;27;20047;-80
2023/08/01 05:28:06;;;;;;;1.40;0.63;;;;;;;;;;5985233;27;20130;-78
2023/08/01 05:30:57;;;;;;;0.20;0.20;;;;;;;;;;5985788;27;20073;-79
2023/08/01 05:33:48;;;;;;;2.38;1.13;;;;;;;;;;5966150;27;20054;-78
2023/08/01 05:36:38;;;;;;;0.30;0.30;;;;;;;;;;5984277;27;20047;-78
2023/08/01 05:39:30;;;;;;;0.68;0.45;;;;;;;;;;5983229;27;20050;-77
2023/08/01 05:42:21;;;;;;;0.68;0.30;;;;;;;;;;5984128;27;20043;-78
2023/08/01 05:45:11;;;;;;;0.52;0.47;;;;;;;;;;5983727;27;20050;-76
2023/08/01 05:48:02;;;;;;;2.15;0.40;;;;;;;;;;5984433;27;20047;-76
2023/08/01 05:50:55;;;;;;;0.52;0.45;;;;;;;;;;5967062;27;20047;-77
2023/08/01 05:53:46;;;;;;;0.43;0.30;;;;;;;;;;5984716;27;20043;-79
2023/08/01 05:56:36;;;;;;;0.20;0.20;;;;;;;;;;5984579;27;20482;-79
2023/08/01 05:59:28;;;;;;;0.38;0.38;;;;;;;;;;5984665;27;20550;-79
2023/08/01 06:02:19;;;;;;;2.00;0.35;;;;;;;;;;5984643;27;20051;-79
2023/08/01 06:05:09;;;;;;;3.63;1.15;;;;;;;;;;5984327;27;20542;-75
2023/08/01 06:08:00;;;;;;;4.15;1.48;;;;;;;;;;5984860;27;20140;-81
2023/08/01 06:10:51;;;;;;;0.88;0.63;;;;;;;;;;5984842;27;20416;-79
2023/08/01 06:13:42;;;;;;;1.83;1.00;;;;;;;;;;5965915;27;20084;-78
2023/08/01 06:16:32;;;;;;;0.40;0.32;;;;;;;;;;5984061;27;20050;-79
2023/08/01 06:19:23;;;;;;;5.63;1.15;;;;;;;;;;5983916;27;20039;-77
2023/08/01 06:22:14;;;;;;;3.17;1.15;;;;;;;;;;5984102;27;20043;-78
2023/08/01 06:25:05;;;;;;;1.48;0.85;;;;;;;;;;5983645;27;20534;-77
2023/08/01 06:27:56;;;;;;;4.38;1.00;;;;;;;;;;5984243;27;20050;-75
2023/08/01 06:30:47;;;;;;;1.42;0.88;;;;;;;;;;5978046;27;20055;-79
2023/08/01 06:33:38;;;;;;;7.13;1.75;;;;;;;;;;5980785;27;20051;-80
2023/08/01 06:36:29;;;;;;;0.85;0.55;;;;;;;;;;5983428;27;20047;-77
2023/08/01 06:39:20;;;;;;;0.75;0.75;;;;;;;;;;5983503;27;20703;-77
2023/08/01 06:42:11;;;;;;;1.45;0.80;;;;;;;;;;5983274;27;20071;-77
2023/08/01 06:45:02;;;;;;;0.47;0.20;;;;;;;;;;5983189;27;20398;-80
2023/08/01 06:47:53;;;;;;;0.30;0.25;;;;;;;;;;5965522;27;20510;-78
2023/08/01 06:50:43;;;;;;;1.33;0.20;;;;;;;;;;5977961;27;20401;-74
2023/08/01 06:53:34;;;;;;;0.68;0.47;;;;;;;;;;5979918;27;20043;-77
2023/08/01 06:56:25;;;;;;;0.25;0.25;;;;;;;;;;5983188;27;20043;-76
2023/08/01 06:59:17;;;;;;;0.63;0.50;;;;;;;;;;5983089;27;20043;-75
2023/08/01 07:02:08;;;;;;;2.10;1.00;;;;;;;;;;5983167;27;20139;-75
2023/08/01 07:04:59;;;;;;;2.95;0.70;;;;;;;;;;5983462;27;20055;-80
2023/08/01 07:07:50;;;;;;;0.52;0.47;;;;;;;;;;5983278;27;20122;-77
2023/08/01 07:10:41;;;;;;;0.40;0.40;;;;;;;;;;5977992;27;20044;-77
2023/08/01 07:13:32;;;;;;;0.28;0.25;;;;;;;;;;5961381;27;20050;-77
2023/08/01 07:16:23;;;;;;;0.30;0.30;;;;;;;;;;5974436;27;20123;-75
2023/08/01 07:19:14;;;;;;;1.75;0.80;;;;;;;;;;5982657;27;20043;-79
2023/08/01 07:22:05;;;;;;;0.98;0.88;;;;;;;;;;5982952;27;20047;-79
2023/08/01 07:24:56;;;;;;;1.10;0.98;;;;;;;;;;5983263;27;20486;-77
2023/08/01 07:27:46;;;;;;;0.45;0.40;;;;;;;;;;5964469;27;20834;-75
2023/08/01 07:30:37;;;;;;;2.28;0.80;;;;;;;;;;5978115;27;20054;-78
2023/08/01 07:33:28;;;;;;;0.80;0.65;;;;;;;;;;5978539;27;20051;-79
2023/08/01 07:36:19;;;;;;;0.30;0.30;;;;;;;;;;5982755;27;20062;-79
2023/08/01 07:39:10;;;;;;;0.40;0.38;;;;;;;;;;5964403;27;20059;-79
2023/08/01 07:42:00;;;;;;;0.45;0.45;;;;;;;;;;5983052;27;20070;-77
2023/08/01 07:44:51;;;;;;;0.85;0.40;;;;;;;;;;5982362;27;20046;-77
2023/08/01 07:47:42;;;;;;;0.82;0.63;;;;;;;;;;5982240;27;20050;-75
2023/08/01 07:50:33;;;;;;;1.40;0.80;;;;;;;;;;5978858;27;20437;-78
2023/08/01 07:53:24;;;;;;;0.73;0.60;;;;;;;;;;5977578;27;20046;-76
2023/08/01 07:56:15;;;;;;;0.60;0.57;;;;;;;;;;5982257;27;20081;-76
2023/08/01 07:59:05;;;;;;;0.85;0.82;;;;;;;;;;5982161;27;20402;-78
2023/08/01 08:01:56;;;;;;;1.48;1.00;;;;;;;;;;5982755;27;20536;-79
2023/08/01 08:04:47;;;;;;;1.70;0.40;;;;;;;;;;5981675;28;20406;-77
2023/08/01 08:07:38;;;;;;;5.72;0.52;;;;;;;;;;5982140;28;20043;-77
2023/08/01 08:10:28;;;;;;;0.70;0.43;;;;;;;;;;5978683;28;20054;-79
2023/08/01 08:13:20;;;;;;;0.40;0.30;;;;;;;;;;5976638;28;20055;-76
2023/08/01 08:16:11;;;;;;;0.50;0.50;;;;;;;;;;5981893;28;20047;-79
2023/08/01 08:19:02;;;;;;;1.00;0.50;;;;;;;;;;5981646;28;20050;-76
2023/08/01 08:21:53;;;;;;;1.17;1.08;;;;;;;;;;5982455;28;20661;-79
2023/08/01 08:24:43;;;;;;;0.77;0.63;;;;;;;;;;5981704;28;20043;-78
2023/08/01 08:27:34;;;;;;;0.95;0.65;;;;;;;;;;5981780;28;20378;-79
2023/08/01 08:30:25;;;;;;;0.40;0.40;;;;;;;;;;5979241;28;20536;-77
2023/08/01 08:33:21;;;;;;;0.57;0.55;;;;;;;;;;5976071;28;20491;-76
2023/08/01 08:36:12;;;;;;;0.93;0.65;;;;;;;;;;5981858;28;20047;-78
2023/08/01 08:39:03;;;;;;;0.90;0.50;;;;;;;;;;5981779;28;20047;-78
2023/08/01 08:41:54;;;;;;;1.58;0.30;;;;;;;;;;5981852;28;20051;-77
2023/08/01 08:44:49;;;;;;;1.55;0.82;;;;;;;;;;5981326;28;20039;-76
2023/08/01 08:47:44;;;;;;;0.85;0.70;;;;;;;;;;5981577;28;20456;-79
2023/08/01 08:50:35;;;;;;;1.00;0.70;;;;;;;;;;5959481;28;20451;-78
2023/08/01 08:53:26;;;;;;;0.38;0.38;;;;;;;;;;5977074;28;20075;-78
2023/08/01 08:56:18;;;;;;;1.42;0.63;;;;;;;;;;5981633;28;20050;-76
2023/08/01 08:59:12;;;;;;;0.80;0.73;;;;;;;;;;5981350;28;20047;-78
2023/08/01 09:02:04;;;;;;;0.90;0.57;;;;;;;;;;5963427;28;20080;-78
2023/08/01 09:04:56;;;;;;;0.63;0.52;;;;;;;;;;5981829;28;20054;-78
2023/08/01 09:07:51;;;;;;;0.80;0.65;;;;;;;;;;5981502;28;20048;-79
2023/08/01 09:10:42;;;;;;;2.15;1.08;;;;;;;;;;5975837;28;20154;-76
2023/08/01 09:13:34;;;;;;;1.08;0.80;;;;;;;;;;5977818;27;20043;-78
2023/08/01 09:16:26;;;;;;;0.77;0.30;;;;;;;;;;5985021;27;20043;-77
2023/08/01 09:19:19;;;;;;;6.07;0.75;;;;;;;;;;5985378;27;20051;-77
2023/08/01 09:22:16;;;;;;;1.63;0.63;;;;;;;;;;5985565;27;20051;-78
2023/08/01 09:25:08;;;;;;;1.75;1.27;;;;;;;;;;5984949;27;20138;-77
2023/08/01 09:27:58;;;;;;;1.73;0.70;;;;;;;;;;5985580;27;20053;-79
2023/08/01 09:30:55;;;;;;;0.77;0.77;;;;;;;;;;5985406;27;20486;-78
2023/08/01 09:33:46;;;;;;;2.30;0.73;;;;;;;;;;5966963;27;20043;-79
2023/08/01 09:36:37;;;;;;;3.30;1.38;;;;;;;;;;5985274;27;20043;-81
2023/08/01 09:39:28;;;;;;;2.00;1.00;;;;;;;;;;5966954;27;20516;-76
2023/08/01 09:42:19;;;;;;;0.70;0.70;;;;;;;;;;5984902;27;20405;-79
2023/08/01 09:45:18;;;;;;;1.58;1.20;;;;;;;;;;5984779;27;20051;-77
2023/08/01 09:48:09;;;;;;;1.15;0.70;;;;;;;;;;5966863;27;20047;-78
2023/08/01 09:51:14;;;;;;;1.40;0.98;;;;;;;;;;5985371;27;20538;-78
2023/08/01 09:54:05;;;;;;;2.42;0.82;;;;;;;;;;5984336;27;20039;-79
2023/08/01 09:56:57;;;;;;;1.52;0.60;;;;;;;;;;5985034;27;20058;-78
2023/08/01 09:59:48;;;;;;;1.90;0.77;;;;;;;;;;5966644;27;20477;-79
2023/08/01 10:02:42;;;;;;;0.95;0.63;;;;;;;;;;5966283;27;20054;-78
2023/08/01 10:05:37;;;;;;;0.52;0.52;;;;;;;;;;5962362;27;20123;-75
2023/08/01 10:08:29;;;;;;;1.05;0.82;;;;;;;;;;5980325;27;20058;-78
2023/08/01 10:11:22;;;;;;;4.47;0.47;;;;;;;;;;5984596;27;20477;-77
2023/08/01 10:14:14;;;;;;;0.60;0.40;;;;;;;;;;5964364;27;20051;-77
2023/08/01 10:17:06;;;;;;;0.85;0.70;;;;;;;;;;5966183;27;20043;-75
2023/08/01 10:19:58;;;;;;;0.65;0.65;;;;;;;;;;5984779;27;20442;-76
2023/08/01 10:22:50;;;;;;;0.75;0.52;;;;;;;;;;5984337;27;20043;-78
2023/08/01 10:25:42;;;;;;;0.88;0.70;;;;;;;;;;5960563;27;20043;-77
2023/08/01 10:28:36;;;;;;;2.75;0.55;;;;;;;;;;5980919;27;20069;-77
2023/08/01 10:31:27;;;;;;;0.73;0.50;;;;;;;;;;5965675;27;20043;-79
2023/08/01 10:34:20;;;;;;;0.68;0.52;;;;;;;;;;5984037;27;20546;-76
2023/08/01 10:37:10;;;;;;;0.73;0.60;;;;;;;;;;5983863;27;20055;-78
2023/08/01 10:40:02;;;;;;;1.08;0.50;;;;;;;;;;5965963;27;20047;-76
2023/08/01 10:42:53;;;;;;;0.70;0.70;;;;;;;;;;5983939;27;20444;-79
2023/08/01 10:45:43;;;;;;;0.90;0.80;;;;;;;;;;5978238;27;20390;-79
2023/08/01 10:48:34;;;;;;;0.73;0.50;;;;;;;;;;5980332;27;20169;-79
2023/08/01 10:51:35;;;;;;;3.22;1.33;;;;;;;;;;5983829;27;20470;-80
2023/08/01 10:54:26;;;;;;;1.98;1.02;;;;;;;;;;5983444;27;20043;-78
2023/08/01 10:57:18;;;;;;;0.70;0.70;;;;;;;;;;5983228;27;20047;-79
2023/08/01 11:00:09;;;;;;;1.77;0.52;;;;;;;;;;5965367;27;20050;-78
2023/08/01 11:03:01;;;;;;;1.25;0.85;;;;;;;;;;5984090;27;20062;-77
2023/08/01 11:05:58;;;;;;;2.15;0.75;;;;;;;;;;5983953;27;20366;-77
2023/08/01 11:08:48;;;;;;;1.10;0.65;;;;;;;;;;5983391;27;20050;-79
2023/08/01 11:11:40;;;;;;;10.32;1.20;;;;;;;;;;5983370;27;20043;-80
2023/08/01 11:14:31;;;;;;;1.00;0.63;;;;;;;;;;5983372;27;20053;-79
2023/08/01 11:17:22;;;;;;;0.82;0.60;;;;;;;;;;5965530;27;20043;-79
2023/08/01 11:20:13;;;;;;;0.80;0.40;;;;;;;;;;5965880;27;20051;-81
2023/08/01 11:23:04;;;;;;;0.80;0.70;;;;;;;;;;5983668;27;20051;-79
2023/08/01 11:25:56;;;;;;;4.22;0.85;;;;;;;;;;5985030;27;20474;-79
2023/08/01 11:28:46;;;;;;;0.40;0.38;;;;;;;;;;5965540;27;20047;-80
2023/08/01 11:31:39;;;;;;;0.47;0.38;;;;;;;;;;5984643;27;20043;-79
2023/08/01 11:34:46;;;;;;;0.50;0.50;;;;;;;;;;5983877;27;20054;-79
2023/08/01 11:37:40;;;;;;;0.45;0.40;;;;;;;;;;5982989;27;20065;-79
2023/08/01 11:40:31;;;;;;;0.75;0.70;;;;;;;;;;5981128;27;20047;-80
2023/08/01 11:43:22;;;;;;;1.45;0.95;;;;;;;;;;5960724;27;20047;-80
2023/08/01 11:46:13;;;;;;;1.48;0.73;;;;;;;;;;5965346;27;20392;-78
2023/08/01 11:49:06;;;;;;;3.42;0.68;;;;;;;;;;5984210;27;20047;-81
2023/08/01 11:51:57;;;;;;;0.47;0.47;;;;;;;;;;5976047;27;20112;-79
2023/08/01 11:54:48;;;;;;;1.55;0.75;;;;;;;;;;5983501;27;20050;-81
2023/08/01 11:57:39;;;;;;;0.52;0.52;;;;;;;;;;5983543;27;20349;-81
2023/08/01 12:00:30;;;;;;;1.88;1.30;;;;;;;;;;5980066;27;20482;-81
2023/08/01 12:03:20;;;;;;;3.15;1.48;;;;;;;;;;5978850;28;20053;-81
2023/08/01 12:06:13;;;;;;;1.88;0.95;;;;;;;;;;5965391;28;20058;-80
2023/08/01 12:09:10;;;;;;;2.05;1.17;;;;;;;;;;5984620;28;20043;-82
2023/08/01 12:12:01;;;;;;;1.10;1.00;;;;;;;;;;5984859;28;20123;-82
2023/08/01 12:14:52;;;;;;;0.95;0.90;;;;;;;;;;5985008;28;20047;-82
2023/08/01 12:17:43;;;;;;;1.13;1.02;;;;;;;;;;5984591;28;20043;-81
2023/08/01 12:20:34;;;;;;;1.20;0.57;;;;;;;;;;5980975;28;20048;-79
2023/08/01 12:23:25;;;;;;;7.55;1.02;;;;;;;;;;5978188;28;20351;-79
2023/08/01 12:26:15;;;;;;;1.00;0.85;;;;;;;;;;5955402;28;20329;-77
2023/08/01 12:29:07;;;;;;;1.52;0.70;;;;;;;;;;5958195;28;20043;-77
2023/08/01 12:31:58;;;;;;;2.15;1.55;;;;;;;;;;5958960;28;20104;-80
2023/08/01 12:34:49;;;;;;;2.80;1.17;;;;;;;;;;5956590;28;20078;-77
2023/08/01 12:37:39;;;;;;;1.17;1.08;;;;;;;;;;5957107;28;20040;-77
2023/08/01 12:40:30;;;;;;;1.73;1.15;;;;;;;;;;5957560;28;20043;-77
2023/08/01 12:43:22;;;;;;;0.85;0.73;;;;;;;;;;5957623;28;20051;-79
2023/08/01 12:46:13;;;;;;;0.60;0.60;;;;;;;;;;5957380;28;20048;-79
2023/08/01 12:49:04;;;;;;;0.77;0.50;;;;;;;;;;5959037;28;20044;-79
2023/08/01 12:51:57;;;;;;;0.57;0.57;;;;;;;;;;5962739;28;20166;-77
2023/08/01 12:54:47;;;;;;;1.00;0.90;;;;;;;;;;5961683;28;20494;-79
2023/08/01 12:57:38;;;;;;;0.60;0.28;;;;;;;;;;5956014;28;20043;-80
2023/08/01 13:00:32;;;;;;;0.73;0.73;;;;;;;;;;5949858;28;20048;-81
2023/08/01 13:03:23;;;;;;;0.68;0.68;;;;;;;;;;5956963;28;20386;-79
2023/08/01 13:06:14;;;;;;;1.30;0.90;;;;;;;;;;5962360;27;20044;-79
2023/08/01 13:09:05;;;;;;;1.40;1.30;;;;;;;;;;5979719;27;20043;-80
2023/08/01 13:11:56;;;;;;;1.35;1.00;;;;;;;;;;5962322;28;20126;-84
2023/08/01 13:14:47;;;;;;;0.63;0.63;;;;;;;;;;5949835;28;20125;-77
2023/08/01 13:17:38;;;;;;;1.67;1.23;;;;;;;;;;5949914;28;20490;-80
2023/08/01 13:20:29;;;;;;;1.83;0.95;;;;;;;;;;5952179;28;20044;-81
2023/08/01 13:23:22;;;;;;;1.73;1.00;;;;;;;;;;5956303;28;20074;-80
2023/08/01 13:26:13;;;;;;;0.65;0.63;;;;;;;;;;5937282;28;20044;-78
2023/08/01 13:29:04;;;;;;;4.15;1.50;;;;;;;;;;5944957;28;20055;-80
2023/08/01 13:31:55;;;;;;;2.10;1.63;;;;;;;;;;5953520;28;20071;-81
2023/08/01 13:34:46;;;;;;;2.33;1.33;;;;;;;;;;5962031;28;20047;-82
2023/08/01 13:37:37;;;;;;;0.63;0.52;;;;;;;;;;5953812;28;20047;-83
2023/08/01 13:40:27;;;;;;;2.20;1.65;;;;;;;;;;5947806;28;20055;-81
2023/08/01 13:43:18;;;;;;;0.82;0.63;;;;;;;;;;5961349;28;20051;-82
2023/08/01 13:46:19;;;;;;;1.45;0.73;;;;;;;;;;5938157;28;20044;-82
2023/08/01 13:49:19;;;;;;;4.43;1.77;;;;;;;;;;5939150;28;20060;-81
2023/08/01 13:52:10;;;;;;;1.70;1.30;;;;;;;;;;5953004;28;20130;-81
2023/08/01 13:55:02;;;;;;;2.08;0.80;;;;;;;;;;5962350;28;20062;-82
2023/08/01 13:57:53;;;;;;;2.92;0.93;;;;;;;;;;5953834;28;20398;-81
2023/08/01 14:00:44;;;;;;;1.63;1.25;;;;;;;;;;5949376;28;20044;-82
2023/08/01 14:03:37;;;;;;;2.92;1.60;;;;;;;;;;5958447;28;20054;-83
2023/08/01 14:06:28;;;;;;;2.35;1.88;;;;;;;;;;5959477;28;20245;-82
2023/08/01 14:09:19;;;;;;;1.33;0.95;;;;;;;;;;5959761;28;20051;-83
2023/08/01 14:12:09;;;;;;;0.32;0.32;;;;;;;;;;5961292;28;20478;-81
2023/08/01 14:15:00;;;;;;;0.80;0.75;;;;;;;;;;5961356;28;20048;-82
2023/08/01 14:17:52;;;;;;;0.85;0.32;;;;;;;;;;5960857;28;20044;-80
2023/08/01 14:20:43;;;;;;;1.00;0.60;;;;;;;;;;5955582;28;20044;-80
2023/08/01 14:23:34;;;;;;;1.83;0.50;;;;;;;;;;5957153;28;20413;-80
2023/08/01 14:26:25;;;;;;;1.25;0.38;;;;;;;;;;5960928;28;20040;-80
2023/08/01 14:29:16;;;;;;;1.65;0.82;;;;;;;;;;5948593;27;20047;-79
2023/08/01 14:32:07;;;;;;;2.00;1.23;;;;;;;;;;5946487;28;20043;-79
2023/08/01 14:34:58;;;;;;;1.95;1.05;;;;;;;;;;5961320;28;20081;-79
2023/08/01 14:37:49;;;;;;;2.90;0.98;;;;;;;;;;5960784;28;20043;-79
2023/08/01 14:40:40;;;;;;;4.28;1.10;;;;;;;;;;5968442;27;20479;-78
2023/08/01 14:43:34;;;;;;;0.85;0.68;;;;;;;;;;5965278;27;20048;-81
2023/08/01 14:46:25;;;;;;;4.00;1.35;;;;;;;;;;5960551;28;20050;-80
2023/08/01 14:49:16;;;;;;;1.17;1.00;;;;;;;;;;5933413;28;20131;-79
2023/08/01 14:52:07;;;;;;;0.95;0.82;;;;;;;;;;5929649;28;20044;-81
2023/08/01 14:54:58;;;;;;;1.23;0.95;;;;;;;;;;5961001;28;20051;-79
2023/08/01 14:57:49;;;;;;;1.48;1.25;;;;;;;;;;5960952;28;20047;-82
2023/08/01 15:00:40;;;;;;;1.20;1.08;;;;;;;;;;5948711;28;20048;-81
2023/08/01 15:03:31;;;;;;;1.27;0.75;;;;;;;;;;5942363;28;20044;-81
2023/08/01 15:06:22;;;;;;;2.35;1.58;;;;;;;;;;5937222;28;20058;-79
2023/08/01 15:09:12;;;;;;;2.03;1.48;;;;;;;;;;5956721;28;20105;-80
2023/08/01 15:12:04;;;;;;;3.33;1.67;;;;;;;;;;5939520;28;20469;-81
2023/08/01 15:14:56;;;;;;;1.15;1.05;;;;;;;;;;5919100;28;20048;-79
2023/08/01 15:17:47;;;;;;;0.60;0.60;;;;;;;;;;5936288;28;20069;-79
2023/08/01 15:20:40;;;;;;;1.55;1.27;;;;;;;;;;5935659;28;20044;-79
2023/08/01 15:23:31;;;;;;;3.25;0.52;;;;;;;;;;5948027;28;20145;-79
2023/08/01 15:26:22;;;;;;;0.93;0.47;;;;;;;;;;5951342;28;20130;-78
2023/08/01 15:29:15;;;;;;;0.98;0.75;;;;;;;;;;5953533;28;20052;-79
2023/08/01 15:32:06;;;;;;;1.15;0.50;;;;;;;;;;5938351;28;20372;-80
2023/08/01 15:34:57;;;;;;;0.98;0.90;;;;;;;;;;5951888;28;20520;-79
2023/08/01 15:37:48;;;;;;;1.17;0.98;;;;;;;;;;5959494;28;20050;-79
2023/08/01 15:40:39;;;;;;;0.93;0.60;;;;;;;;;;5940871;28;20051;-80
2023/08/01 15:43:30;;;;;;;1.90;1.38;;;;;;;;;;5946848;28;20482;-80
2023/08/01 15:46:23;;;;;;;0.85;0.85;;;;;;;;;;5940474;28;20051;-79
2023/08/01 15:49:14;;;;;;;2.80;1.27;;;;;;;;;;5954257;28;20054;-82
2023/08/01 15:52:06;;;;;;;0.93;0.88;;;;;;;;;;5949436;28;20406;-80
2023/08/01 15:54:57;;;;;;;2.47;1.50;;;;;;;;;;5959376;28;20048;-79
2023/08/01 15:57:50;;;;;;;1.35;0.85;;;;;;;;;;5933249;28;20048;-80
2023/08/01 16:00:41;;;;;;;2.83;1.02;;;;;;;;;;5948641;28;20050;-81
2023/08/01 16:03:32;;;;;;;5.55;0.80;;;;;;;;;;5955919;28;20051;-80
2023/08/01 16:06:25;;;;;;;1.70;0.85;;;;;;;;;;5958584;28;20044;-80
2023/08/01 16:09:16;;;;;;;2.15;1.30;;;;;;;;;;5927555;28;20056;-80
2023/08/01 16:12:07;;;;;;;1.60;1.33;;;;;;;;;;5934335;28;20052;-82
2023/08/01 16:14:58;;;;;;;1.00;0.85;;;;;;;;;;5940775;28;20425;-79
2023/08/01 16:17:49;;;;;;;0.57;0.47;;;;;;;;;;5951874;28;20054;-80
2023/08/01 16:20:40;;;;;;;2.47;0.63;;;;;;;;;;5937400;28;20051;-80
2023/08/01 16:23:31;;;;;;;0.50;0.50;;;;;;;;;;5943906;28;20511;-82
2023/08/01 16:26:22;;;;;;;2.78;0.63;;;;;;;;;;5921260;28;20048;-80
2023/08/01 16:29:13;;;;;;;1.30;0.50;;;;;;;;;;5929263;28;20044;-81
2023/08/01 16:32:05;;;;;;;0.60;0.60;;;;;;;;;;5955511;28;20498;-81
2023/08/01 16:34:55;;;;;;;1.08;0.98;;;;;;;;;;5945094;28;20077;-81
2023/08/01 16:37:46;;;;;;;0.30;0.30;;;;;;;;;;5967894;27;20603;-83
2023/08/01 16:40:40;;;;;;;0.63;0.40;;;;;;;;;;5966847;27;20135;-81
2023/08/01 16:43:31;;;;;;;0.40;0.30;;;;;;;;;;5927782;28;20043;-83
2023/08/01 16:46:22;;;;;;;1.20;1.08;;;;;;;;;;5915267;28;20050;-84
2023/08/01 16:49:15;;;;;;;0.22;0.22;;;;;;;;;;5922025;28;20050;-82
2023/08/01 16:52:16;;;;;;;0.50;0.32;;;;;;;;;;5921915;28;20515;-82
2023/08/01 16:55:48;;;;;;;0.50;0.45;;;;;;;;;;5918216;28;20434;-82
2023/08/01 16:58:44;;;;;;;0.22;0.22;;;;;;;;;;5927205;28;20051;-83
2023/08/01 17:01:35;;;;;;;0.22;0.22;;;;;;;;;;5920724;28;20051;-82
2023/08/01 17:04:27;;;;;;;2.70;0.65;;;;;;;;;;5927917;28;20114;-82
2023/08/01 17:07:39;;;;;;;0.35;0.30;;;;;;;;;;5925282;28;20054;-82
2023/08/01 17:11:14;;;;;;;1.15;0.45;;;;;;;;;;5924638;28;20489;-82